BAW86W EGKK-LEMG
Flight info
| Callsign | BAW86W |
|---|---|
| Flight time | 2h 35m |
| Altitude | 37000 |
| Route | IMVUR N63 SAM M195 MARUK N621 LELNA DCT NOVAN DCT DELOG DCT CRISA N864 VULPE |
| Aircraft | A321/M-SDE3FGHIRWY/LB1 |
Departure
| Time | 2026-05-05 16:58 |
|---|---|
| Airport | London Gatwick Airport (EGKK) |
Arrival
| Time | 2026-05-05 19:33 |
|---|---|
| Airport | Málaga-Costa del Sol Airport (LEMG) |
| Time | Latitude | Longitude | Altitude | Speed | Heading |
|---|---|---|---|---|---|
| 2026-05-05 16:29 | 51.15780 | -0.17889 | 205 ft | 0 kts | 347° |
| 2026-05-05 16:43 | 51.15756 | -0.17879 | 208 ft | 4 kts | 338° |
| 2026-05-05 16:44 | 51.15733 | -0.17859 | 215 ft | 4 kts | 317° |
| 2026-05-05 16:44 | 51.15719 | -0.17827 | 214 ft | 4 kts | 268° |
| 2026-05-05 16:44 | 51.15720 | -0.17818 | 214 ft | 0 kts | 258° |
| 2026-05-05 16:47 | 51.15718 | -0.17829 | 213 ft | 2 kts | 258° |
| 2026-05-05 16:47 | 51.15718 | -0.17833 | 213 ft | 0 kts | 258° |
| 2026-05-05 16:48 | 51.15713 | -0.17865 | 209 ft | 6 kts | 257° |
| 2026-05-05 16:48 | 51.15701 | -0.17953 | 213 ft | 11 kts | 257° |
| 2026-05-05 16:49 | 51.15681 | -0.18093 | 205 ft | 14 kts | 258° |
| 2026-05-05 16:49 | 51.15659 | -0.18251 | 208 ft | 15 kts | 258° |
| 2026-05-05 16:49 | 51.15609 | -0.18355 | 205 ft | 12 kts | 174° |
| 2026-05-05 16:49 | 51.15553 | -0.18337 | 210 ft | 13 kts | 168° |
| 2026-05-05 16:50 | 51.15464 | -0.18306 | 209 ft | 13 kts | 167° |
| 2026-05-05 16:50 | 51.15393 | -0.18282 | 205 ft | 10 kts | 167° |
| 2026-05-05 16:50 | 51.15322 | -0.18257 | 205 ft | 11 kts | 167° |
| 2026-05-05 16:50 | 51.15263 | -0.18236 | 207 ft | 5 kts | 168° |
| 2026-05-05 16:51 | 51.15259 | -0.18235 | 205 ft | 0 kts | 168° |
| 2026-05-05 16:51 | 51.15233 | -0.18226 | 213 ft | 7 kts | 168° |
| 2026-05-05 16:52 | 51.15184 | -0.18277 | 208 ft | 12 kts | 261° |
| 2026-05-05 16:52 | 51.15174 | -0.18418 | 208 ft | 13 kts | 257° |
| 2026-05-05 16:52 | 51.15155 | -0.18564 | 210 ft | 14 kts | 257° |
| 2026-05-05 16:52 | 51.15133 | -0.18716 | 205 ft | 14 kts | 257° |
| 2026-05-05 16:53 | 51.15111 | -0.18876 | 215 ft | 15 kts | 257° |
| 2026-05-05 16:53 | 51.15089 | -0.19039 | 209 ft | 15 kts | 258° |
| 2026-05-05 16:53 | 51.15066 | -0.19206 | 208 ft | 16 kts | 258° |
| 2026-05-05 16:53 | 51.14991 | -0.19271 | 207 ft | 13 kts | 178° |
| 2026-05-05 16:54 | 51.14945 | -0.19368 | 208 ft | 12 kts | 260° |
| 2026-05-05 16:54 | 51.14930 | -0.19513 | 207 ft | 14 kts | 259° |
| 2026-05-05 16:54 | 51.14911 | -0.19665 | 216 ft | 14 kts | 257° |
| 2026-05-05 16:54 | 51.14889 | -0.19822 | 209 ft | 15 kts | 258° |
| 2026-05-05 16:55 | 51.14866 | -0.19995 | 210 ft | 17 kts | 258° |
| 2026-05-05 16:55 | 51.14839 | -0.20183 | 214 ft | 18 kts | 257° |
| 2026-05-05 16:55 | 51.14811 | -0.20386 | 211 ft | 19 kts | 257° |
| 2026-05-05 16:55 | 51.14784 | -0.20585 | 214 ft | 18 kts | 258° |
| 2026-05-05 16:56 | 51.14756 | -0.20790 | 211 ft | 19 kts | 258° |
| 2026-05-05 16:56 | 51.14711 | -0.20980 | 214 ft | 17 kts | 217° |
| 2026-05-05 16:56 | 51.14623 | -0.20950 | 214 ft | 13 kts | 156° |
| 2026-05-05 16:56 | 51.14568 | -0.20856 | 214 ft | 11 kts | 105° |
| 2026-05-05 16:57 | 51.14574 | -0.20775 | 211 ft | 0 kts | 77° |
| 2026-05-05 16:57 | 51.14576 | -0.20766 | 209 ft | 6 kts | 76° |
| 2026-05-05 16:57 | 51.14607 | -0.20557 | 211 ft | 42 kts | 77° |
| 2026-05-05 16:57 | 51.14720 | -0.19741 | 211 ft | 107 kts | 77° |
| 2026-05-05 16:58 | 51.14921 | -0.18281 | 210 ft | 160 kts | 77° |
| 2026-05-05 16:58 | 51.15165 | -0.16539 | 825 ft | 158 kts | 77° |
| 2026-05-05 16:58 | 51.15411 | -0.14841 | 1556 ft | 156 kts | 76° |
| 2026-05-05 16:58 | 51.15663 | -0.13134 | 2034 ft | 163 kts | 75° |
| 2026-05-05 16:59 | 51.15920 | -0.11264 | 2250 ft | 184 kts | 77° |
| 2026-05-05 16:59 | 51.16203 | -0.09148 | 2433 ft | 206 kts | 77° |
| 2026-05-05 16:59 | 51.16550 | -0.06837 | 2732 ft | 220 kts | 68° |
| 2026-05-05 16:59 | 51.17537 | -0.05021 | 3288 ft | 223 kts | 25° |
| 2026-05-05 17:00 | 51.19060 | -0.04598 | 3864 ft | 228 kts | 356° |
| 2026-05-05 17:00 | 51.20614 | -0.05007 | 4268 ft | 227 kts | 347° |
| 2026-05-05 17:00 | 51.22032 | -0.06076 | 4961 ft | 230 kts | 315° |
| 2026-05-05 17:00 | 51.22803 | -0.08294 | 5491 ft | 244 kts | 282° |
| 2026-05-05 17:01 | 51.22753 | -0.11120 | 5758 ft | 266 kts | 263° |
| 2026-05-05 17:01 | 51.22432 | -0.14064 | 6324 ft | 272 kts | 261° |
| 2026-05-05 17:01 | 51.22052 | -0.17047 | 6966 ft | 275 kts | 260° |
| 2026-05-05 17:01 | 51.21661 | -0.20053 | 7608 ft | 278 kts | 260° |
| 2026-05-05 17:02 | 51.21275 | -0.23091 | 8240 ft | 281 kts | 261° |
| 2026-05-05 17:02 | 51.20898 | -0.26167 | 8875 ft | 284 kts | 261° |
| 2026-05-05 17:02 | 51.20525 | -0.29280 | 9508 ft | 287 kts | 260° |
| 2026-05-05 17:02 | 51.20154 | -0.32428 | 10101 ft | 290 kts | 261° |
| 2026-05-05 17:03 | 51.19782 | -0.35619 | 10654 ft | 294 kts | 260° |
| 2026-05-05 17:03 | 51.19382 | -0.38837 | 11196 ft | 298 kts | 260° |
| 2026-05-05 17:03 | 51.18955 | -0.42101 | 11792 ft | 301 kts | 258° |
| 2026-05-05 17:03 | 51.18516 | -0.45383 | 12340 ft | 305 kts | 258° |
| 2026-05-05 17:04 | 51.18073 | -0.48699 | 12922 ft | 308 kts | 259° |
| 2026-05-05 17:04 | 51.17625 | -0.52057 | 13460 ft | 312 kts | 257° |
| 2026-05-05 17:04 | 51.16931 | -0.55368 | 13821 ft | 323 kts | 248° |
| 2026-05-05 17:04 | 51.16039 | -0.58763 | 13949 ft | 340 kts | 248° |
| 2026-05-05 17:05 | 51.15093 | -0.62299 | 14062 ft | 356 kts | 247° |
| 2026-05-05 17:05 | 51.14099 | -0.65989 | 14194 ft | 370 kts | 247° |
| 2026-05-05 17:05 | 51.13059 | -0.69836 | 14334 ft | 384 kts | 247° |
| 2026-05-05 17:05 | 51.11994 | -0.73775 | 14677 ft | 390 kts | 247° |
| 2026-05-05 17:06 | 51.10924 | -0.77737 | 15145 ft | 392 kts | 247° |
| 2026-05-05 17:06 | 51.09850 | -0.81732 | 15617 ft | 394 kts | 248° |
| 2026-05-05 17:06 | 51.08775 | -0.85757 | 16079 ft | 397 kts | 248° |
| 2026-05-05 17:06 | 51.07689 | -0.89816 | 16540 ft | 399 kts | 248° |
| 2026-05-05 17:07 | 51.06594 | -0.93884 | 17002 ft | 401 kts | 247° |
| 2026-05-05 17:07 | 51.05490 | -0.97972 | 17442 ft | 404 kts | 247° |
| 2026-05-05 17:07 | 51.04377 | -1.02091 | 17859 ft | 406 kts | 247° |
| 2026-05-05 17:07 | 51.03267 | -1.06190 | 18290 ft | 408 kts | 247° |
| 2026-05-05 17:08 | 51.02140 | -1.10336 | 18669 ft | 410 kts | 247° |
| 2026-05-05 17:08 | 51.01005 | -1.14494 | 19055 ft | 411 kts | 247° |
| 2026-05-05 17:08 | 50.99866 | -1.18661 | 19458 ft | 412 kts | 247° |
| 2026-05-05 17:08 | 50.98720 | -1.22847 | 19875 ft | 413 kts | 247° |
| 2026-05-05 17:09 | 50.97590 | -1.26977 | 20275 ft | 414 kts | 247° |
| 2026-05-05 17:09 | 50.96249 | -1.31027 | 20672 ft | 415 kts | 237° |
| 2026-05-05 17:09 | 50.94482 | -1.34660 | 21058 ft | 418 kts | 227° |
| 2026-05-05 17:09 | 50.92332 | -1.37769 | 21444 ft | 420 kts | 218° |
| 2026-05-05 17:10 | 50.89907 | -1.40352 | 21824 ft | 422 kts | 214° |
| 2026-05-05 17:10 | 50.87446 | -1.42890 | 22209 ft | 423 kts | 214° |
| 2026-05-05 17:10 | 50.84978 | -1.45449 | 22547 ft | 425 kts | 214° |
| 2026-05-05 17:10 | 50.82504 | -1.48026 | 22875 ft | 427 kts | 215° |
| 2026-05-05 17:11 | 50.80025 | -1.50615 | 23216 ft | 429 kts | 215° |
| 2026-05-05 17:11 | 50.77527 | -1.53221 | 23562 ft | 431 kts | 215° |
| 2026-05-05 17:11 | 50.75017 | -1.55825 | 23872 ft | 432 kts | 215° |
| 2026-05-05 17:11 | 50.72500 | -1.58428 | 24183 ft | 433 kts | 214° |
| 2026-05-05 17:12 | 50.69975 | -1.61030 | 24490 ft | 434 kts | 214° |
| 2026-05-05 17:12 | 50.67441 | -1.63635 | 24814 ft | 434 kts | 214° |
| 2026-05-05 17:12 | 50.64905 | -1.66241 | 25101 ft | 436 kts | 214° |
| 2026-05-05 17:12 | 50.64495 | -1.66662 | 25155 ft | 436 kts | 213° |
| 2026-05-05 17:13 | 50.64224 | -1.66942 | 25192 ft | 435 kts | 216° |
| 2026-05-05 17:13 | 50.61728 | -1.69594 | 25266 ft | 436 kts | 214° |
| 2026-05-05 17:13 | 50.59181 | -1.72238 | 25437 ft | 440 kts | 213° |
| 2026-05-05 17:13 | 50.58141 | -1.73301 | 25537 ft | 441 kts | 213° |
| 2026-05-05 17:14 | 50.56861 | -1.74603 | 25658 ft | 442 kts | 213° |
| 2026-05-05 17:14 | 50.54269 | -1.77211 | 25903 ft | 443 kts | 213° |
| 2026-05-05 17:15 | 50.51668 | -1.79820 | 26174 ft | 444 kts | 213° |
| 2026-05-05 17:15 | 50.49064 | -1.82446 | 26445 ft | 446 kts | 213° |
| 2026-05-05 17:15 | 50.46467 | -1.85078 | 26642 ft | 444 kts | 213° |
| 2026-05-05 17:15 | 50.43872 | -1.87720 | 26904 ft | 445 kts | 213° |
| 2026-05-05 17:16 | 50.41312 | -1.90332 | 27172 ft | 446 kts | 213° |
| 2026-05-05 17:16 | 50.38710 | -1.92980 | 27383 ft | 448 kts | 212° |
| 2026-05-05 17:16 | 50.36081 | -1.95651 | 27572 ft | 451 kts | 212° |
| 2026-05-05 17:16 | 50.33449 | -1.98317 | 27787 ft | 452 kts | 212° |
| 2026-05-05 17:17 | 50.30799 | -2.00995 | 28003 ft | 453 kts | 212° |
| 2026-05-05 17:17 | 50.28143 | -2.03643 | 28286 ft | 452 kts | 210° |
| 2026-05-05 17:17 | 50.25320 | -2.05798 | 28607 ft | 450 kts | 200° |
| 2026-05-05 17:17 | 50.22340 | -2.07234 | 28924 ft | 448 kts | 192° |
| 2026-05-05 17:18 | 50.19265 | -2.07939 | 29246 ft | 446 kts | 184° |
| 2026-05-05 17:18 | 50.16169 | -2.08314 | 29548 ft | 446 kts | 184° |
| 2026-05-05 17:18 | 50.13079 | -2.08705 | 29810 ft | 446 kts | 184° |
| 2026-05-05 17:18 | 50.09986 | -2.09108 | 30091 ft | 445 kts | 184° |
| 2026-05-05 17:19 | 50.06904 | -2.09515 | 30337 ft | 444 kts | 184° |
| 2026-05-05 17:19 | 50.03822 | -2.09924 | 30574 ft | 444 kts | 184° |
| 2026-05-05 17:19 | 50.00787 | -2.10320 | 30795 ft | 444 kts | 184° |
| 2026-05-05 17:19 | 49.97728 | -2.10985 | 31013 ft | 444 kts | 192° |
| 2026-05-05 17:20 | 49.94755 | -2.12279 | 31224 ft | 444 kts | 196° |
| 2026-05-05 17:20 | 49.91793 | -2.13678 | 31450 ft | 444 kts | 196° |
| 2026-05-05 17:20 | 49.88832 | -2.15067 | 31662 ft | 445 kts | 196° |
| 2026-05-05 17:20 | 49.85866 | -2.16450 | 31883 ft | 444 kts | 196° |
| 2026-05-05 17:21 | 49.82910 | -2.17823 | 32118 ft | 444 kts | 196° |
| 2026-05-05 17:21 | 49.79943 | -2.19195 | 32341 ft | 444 kts | 196° |
| 2026-05-05 17:21 | 49.76990 | -2.20559 | 32557 ft | 444 kts | 196° |
| 2026-05-05 17:22 | 49.71086 | -2.23298 | 32996 ft | 443 kts | 195° |
| 2026-05-05 17:22 | 49.68124 | -2.24674 | 33172 ft | 443 kts | 195° |
| 2026-05-05 17:22 | 49.65211 | -2.26025 | 33341 ft | 444 kts | 196° |
| 2026-05-05 17:22 | 49.62245 | -2.27398 | 33514 ft | 445 kts | 196° |
| 2026-05-05 17:23 | 49.59280 | -2.28770 | 33679 ft | 445 kts | 196° |
| 2026-05-05 17:23 | 49.56314 | -2.30143 | 33873 ft | 445 kts | 196° |
| 2026-05-05 17:23 | 49.53346 | -2.31513 | 34045 ft | 445 kts | 196° |
| 2026-05-05 17:23 | 49.50377 | -2.32877 | 34197 ft | 445 kts | 196° |
| 2026-05-05 17:24 | 49.47411 | -2.34235 | 34332 ft | 446 kts | 195° |
| 2026-05-05 17:24 | 49.44430 | -2.35596 | 34469 ft | 446 kts | 195° |
| 2026-05-05 17:24 | 49.41455 | -2.36955 | 34596 ft | 447 kts | 195° |
| 2026-05-05 17:24 | 49.38475 | -2.38323 | 34735 ft | 447 kts | 196° |
| 2026-05-05 17:25 | 49.35499 | -2.39688 | 34874 ft | 447 kts | 196° |
| 2026-05-05 17:25 | 49.29574 | -2.42394 | 35132 ft | 447 kts | 196° |
| 2026-05-05 17:25 | 49.26592 | -2.43745 | 35287 ft | 446 kts | 196° |
| 2026-05-05 17:26 | 49.23622 | -2.45091 | 35470 ft | 445 kts | 195° |
| 2026-05-05 17:26 | 49.20653 | -2.46436 | 35579 ft | 445 kts | 195° |
| 2026-05-05 17:26 | 49.17685 | -2.47780 | 35733 ft | 444 kts | 195° |
| 2026-05-05 17:26 | 49.14718 | -2.49127 | 35870 ft | 444 kts | 195° |
| 2026-05-05 17:27 | 49.11756 | -2.50472 | 35992 ft | 444 kts | 195° |
| 2026-05-05 17:27 | 49.08790 | -2.51817 | 36124 ft | 444 kts | 195° |
| 2026-05-05 17:27 | 49.05828 | -2.53157 | 36252 ft | 444 kts | 195° |
| 2026-05-05 17:27 | 49.02870 | -2.54490 | 36371 ft | 443 kts | 195° |
| 2026-05-05 17:28 | 48.99908 | -2.55821 | 36515 ft | 443 kts | 195° |
| 2026-05-05 17:28 | 48.96960 | -2.57146 | 36634 ft | 442 kts | 195° |
| 2026-05-05 17:28 | 48.94002 | -2.58472 | 36761 ft | 442 kts | 195° |
| 2026-05-05 17:28 | 48.91056 | -2.59788 | 36917 ft | 440 kts | 195° |
| 2026-05-05 17:29 | 48.88115 | -2.61105 | 36961 ft | 442 kts | 196° |
| 2026-05-05 17:29 | 48.82186 | -2.63752 | 36958 ft | 446 kts | 196° |
| 2026-05-05 17:30 | 48.76206 | -2.66420 | 36965 ft | 449 kts | 196° |
| 2026-05-05 17:30 | 48.70207 | -2.69099 | 36955 ft | 450 kts | 196° |
| 2026-05-05 17:31 | 48.64190 | -2.71775 | 36964 ft | 451 kts | 196° |
| 2026-05-05 17:31 | 48.58204 | -2.74419 | 36973 ft | 451 kts | 195° |
| 2026-05-05 17:32 | 48.52175 | -2.77064 | 36978 ft | 451 kts | 195° |
| 2026-05-05 17:32 | 48.46138 | -2.79723 | 36982 ft | 452 kts | 195° |
| 2026-05-05 17:33 | 48.40101 | -2.82377 | 36990 ft | 452 kts | 195° |
| 2026-05-05 17:33 | 48.34065 | -2.85020 | 36988 ft | 452 kts | 195° |
| 2026-05-05 17:34 | 48.28019 | -2.87661 | 36988 ft | 452 kts | 195° |
| 2026-05-05 17:34 | 48.21983 | -2.90300 | 36990 ft | 452 kts | 195° |
| 2026-05-05 17:35 | 48.15948 | -2.92930 | 36995 ft | 451 kts | 195° |
| 2026-05-05 17:35 | 48.10930 | -2.95112 | 36994 ft | 451 kts | 195° |
| 2026-05-05 17:36 | 48.04895 | -2.97721 | 36991 ft | 451 kts | 195° |
| 2026-05-05 17:36 | 47.98852 | -3.00330 | 36976 ft | 452 kts | 195° |
| 2026-05-05 17:37 | 47.92786 | -3.02941 | 36983 ft | 453 kts | 195° |
| 2026-05-05 17:37 | 47.86729 | -3.05545 | 36983 ft | 454 kts | 195° |
| 2026-05-05 17:38 | 47.80661 | -3.08149 | 36979 ft | 454 kts | 195° |
| 2026-05-05 17:38 | 47.74618 | -3.10742 | 36994 ft | 454 kts | 195° |
| 2026-05-05 17:39 | 47.68551 | -3.13333 | 36989 ft | 454 kts | 195° |
| 2026-05-05 17:39 | 47.62469 | -3.15923 | 36981 ft | 454 kts | 195° |
| 2026-05-05 17:40 | 47.56395 | -3.18512 | 36978 ft | 454 kts | 195° |
| 2026-05-05 17:40 | 47.50310 | -3.21084 | 36978 ft | 454 kts | 195° |
| 2026-05-05 17:41 | 47.44225 | -3.23635 | 36976 ft | 454 kts | 195° |
| 2026-05-05 17:41 | 47.38184 | -3.26185 | 36970 ft | 454 kts | 195° |
| 2026-05-05 17:42 | 47.32107 | -3.28751 | 36972 ft | 454 kts | 195° |
| 2026-05-05 17:42 | 47.26019 | -3.31299 | 36959 ft | 455 kts | 195° |
| 2026-05-05 17:43 | 47.19929 | -3.33853 | 36954 ft | 455 kts | 195° |
| 2026-05-05 17:43 | 47.13831 | -3.36411 | 36953 ft | 456 kts | 195° |
| 2026-05-05 17:44 | 47.07720 | -3.38957 | 36951 ft | 457 kts | 195° |
| 2026-05-05 17:44 | 47.01604 | -3.41495 | 36953 ft | 457 kts | 195° |
| 2026-05-05 17:45 | 46.95480 | -3.44033 | 36972 ft | 457 kts | 195° |
| 2026-05-05 17:45 | 46.89353 | -3.46566 | 36970 ft | 457 kts | 195° |
| 2026-05-05 17:46 | 46.83231 | -3.49088 | 36967 ft | 457 kts | 195° |
| 2026-05-05 17:46 | 46.77109 | -3.51608 | 36967 ft | 457 kts | 195° |
| 2026-05-05 17:47 | 46.71014 | -3.54123 | 36970 ft | 457 kts | 195° |
| 2026-05-05 17:47 | 46.64888 | -3.56634 | 36970 ft | 457 kts | 195° |
| 2026-05-05 17:48 | 46.58765 | -3.59132 | 36982 ft | 457 kts | 195° |
| 2026-05-05 17:48 | 46.52639 | -3.61627 | 36981 ft | 457 kts | 195° |
| 2026-05-05 17:49 | 46.46508 | -3.64115 | 36960 ft | 458 kts | 196° |
| 2026-05-05 17:49 | 46.40366 | -3.66614 | 36961 ft | 458 kts | 196° |
| 2026-05-05 17:50 | 46.34223 | -3.69111 | 36982 ft | 459 kts | 195° |
| 2026-05-05 17:50 | 46.27931 | -3.70549 | 36969 ft | 459 kts | 186° |
| 2026-05-05 17:51 | 46.21574 | -3.71500 | 36977 ft | 459 kts | 186° |
| 2026-05-05 17:51 | 46.15213 | -3.72457 | 36986 ft | 460 kts | 186° |
| 2026-05-05 17:52 | 46.08847 | -3.73400 | 36983 ft | 460 kts | 187° |
| 2026-05-05 17:52 | 46.02486 | -3.74347 | 36980 ft | 460 kts | 186° |
| 2026-05-05 17:53 | 45.96153 | -3.75284 | 36972 ft | 460 kts | 186° |
| 2026-05-05 17:53 | 45.89777 | -3.76218 | 36977 ft | 460 kts | 186° |
| 2026-05-05 17:54 | 45.83396 | -3.77164 | 36982 ft | 461 kts | 187° |
| 2026-05-05 17:54 | 45.77014 | -3.78108 | 36986 ft | 461 kts | 186° |
| 2026-05-05 17:55 | 45.70631 | -3.79046 | 36991 ft | 461 kts | 187° |
| 2026-05-05 17:55 | 45.64250 | -3.79973 | 36993 ft | 461 kts | 187° |
| 2026-05-05 17:56 | 45.57863 | -3.80893 | 37000 ft | 461 kts | 187° |
| 2026-05-05 17:56 | 45.51472 | -3.81826 | 36993 ft | 462 kts | 188° |
| 2026-05-05 17:57 | 45.45079 | -3.82766 | 36991 ft | 462 kts | 187° |
| 2026-05-05 17:57 | 45.38725 | -3.83687 | 36996 ft | 462 kts | 187° |
| 2026-05-05 17:58 | 45.32335 | -3.84610 | 37001 ft | 461 kts | 186° |
| 2026-05-05 17:58 | 45.25944 | -3.85535 | 36999 ft | 461 kts | 187° |
| 2026-05-05 17:59 | 45.19563 | -3.86456 | 36995 ft | 461 kts | 187° |
| 2026-05-05 17:59 | 45.13179 | -3.87376 | 37002 ft | 462 kts | 186° |
| 2026-05-05 18:00 | 45.06784 | -3.88286 | 36998 ft | 462 kts | 188° |
| 2026-05-05 18:00 | 45.00392 | -3.89203 | 37001 ft | 462 kts | 187° |
| 2026-05-05 18:01 | 44.94002 | -3.90124 | 37006 ft | 462 kts | 188° |
| 2026-05-05 18:01 | 44.87651 | -3.91024 | 37011 ft | 462 kts | 187° |
| 2026-05-05 18:02 | 44.81260 | -3.91922 | 37006 ft | 461 kts | 187° |
| 2026-05-05 18:02 | 44.74867 | -3.92828 | 37009 ft | 461 kts | 187° |
| 2026-05-05 18:03 | 44.68480 | -3.93733 | 37016 ft | 461 kts | 186° |
| 2026-05-05 18:03 | 44.62095 | -3.94643 | 37013 ft | 461 kts | 188° |
| 2026-05-05 18:04 | 44.55713 | -3.95552 | 37014 ft | 461 kts | 187° |
| 2026-05-05 18:04 | 44.49373 | -3.96450 | 37018 ft | 461 kts | 188° |
| 2026-05-05 18:05 | 44.42987 | -3.97344 | 37021 ft | 461 kts | 187° |
| 2026-05-05 18:05 | 44.36607 | -3.98233 | 37017 ft | 461 kts | 187° |
| 2026-05-05 18:06 | 44.30224 | -3.99102 | 37020 ft | 460 kts | 187° |
| 2026-05-05 18:06 | 44.23837 | -3.99839 | 37023 ft | 460 kts | 186° |
| 2026-05-05 18:07 | 44.17453 | -4.00523 | 37022 ft | 460 kts | 186° |
| 2026-05-05 18:07 | 44.11069 | -4.01232 | 37017 ft | 460 kts | 187° |
| 2026-05-05 18:08 | 44.04692 | -4.01966 | 37026 ft | 460 kts | 187° |
| 2026-05-05 18:08 | 43.98315 | -4.02702 | 37025 ft | 459 kts | 187° |
| 2026-05-05 18:09 | 43.91943 | -4.03433 | 37018 ft | 460 kts | 187° |
| 2026-05-05 18:09 | 43.85608 | -4.04146 | 37022 ft | 460 kts | 187° |
| 2026-05-05 18:10 | 43.79222 | -4.04864 | 37035 ft | 460 kts | 187° |
| 2026-05-05 18:10 | 43.72838 | -4.05583 | 37035 ft | 460 kts | 187° |
| 2026-05-05 18:11 | 43.66452 | -4.06299 | 37041 ft | 460 kts | 187° |
| 2026-05-05 18:11 | 43.60061 | -4.07015 | 37042 ft | 460 kts | 187° |
| 2026-05-05 18:12 | 43.53679 | -4.07729 | 37036 ft | 460 kts | 188° |
| 2026-05-05 18:12 | 43.47289 | -4.08446 | 37040 ft | 461 kts | 188° |
| 2026-05-05 18:13 | 43.40896 | -4.09160 | 37049 ft | 461 kts | 188° |
| 2026-05-05 18:13 | 43.34550 | -4.09864 | 37042 ft | 461 kts | 188° |
| 2026-05-05 18:14 | 43.28162 | -4.10572 | 37054 ft | 460 kts | 188° |
| 2026-05-05 18:14 | 43.21765 | -4.11284 | 37061 ft | 460 kts | 188° |
| 2026-05-05 18:15 | 43.15388 | -4.11997 | 37035 ft | 460 kts | 188° |
| 2026-05-05 18:15 | 43.08998 | -4.12703 | 37048 ft | 460 kts | 188° |
| 2026-05-05 18:16 | 43.02621 | -4.13396 | 37050 ft | 460 kts | 188° |
| 2026-05-05 18:16 | 42.96243 | -4.14092 | 37055 ft | 460 kts | 188° |
| 2026-05-05 18:17 | 42.89871 | -4.14797 | 37040 ft | 459 kts | 188° |
| 2026-05-05 18:17 | 42.83494 | -4.15498 | 37045 ft | 459 kts | 188° |
| 2026-05-05 18:18 | 42.77161 | -4.16192 | 37045 ft | 459 kts | 188° |
| 2026-05-05 18:18 | 42.70788 | -4.16893 | 37046 ft | 459 kts | 188° |
| 2026-05-05 18:19 | 42.64418 | -4.17585 | 37043 ft | 459 kts | 188° |
| 2026-05-05 18:19 | 42.58045 | -4.18269 | 37041 ft | 459 kts | 188° |
| 2026-05-05 18:20 | 42.51675 | -4.18951 | 37017 ft | 459 kts | 188° |
| 2026-05-05 18:20 | 42.45313 | -4.19641 | 37033 ft | 459 kts | 188° |
| 2026-05-05 18:21 | 42.38947 | -4.20334 | 37037 ft | 458 kts | 188° |
| 2026-05-05 18:21 | 42.32589 | -4.21027 | 37030 ft | 458 kts | 189° |
| 2026-05-05 18:22 | 42.26276 | -4.21706 | 37042 ft | 458 kts | 189° |
| 2026-05-05 18:22 | 42.19921 | -4.22384 | 37044 ft | 458 kts | 188° |
| 2026-05-05 18:23 | 42.13567 | -4.23052 | 37040 ft | 457 kts | 188° |
| 2026-05-05 18:23 | 42.07230 | -4.23730 | 37033 ft | 456 kts | 189° |
| 2026-05-05 18:24 | 42.00900 | -4.24415 | 37041 ft | 456 kts | 189° |
| 2026-05-05 18:24 | 41.94577 | -4.25084 | 37043 ft | 456 kts | 189° |
| 2026-05-05 18:25 | 41.88258 | -4.25764 | 37021 ft | 455 kts | 189° |
| 2026-05-05 18:25 | 41.83006 | -4.26322 | 37033 ft | 455 kts | 189° |
| 2026-05-05 18:26 | 41.75627 | -4.27091 | 37034 ft | 455 kts | 189° |
| 2026-05-05 18:26 | 41.69317 | -4.27756 | 37003 ft | 454 kts | 190° |
| 2026-05-05 18:27 | 41.63063 | -4.28414 | 37020 ft | 454 kts | 190° |
| 2026-05-05 18:27 | 41.56763 | -4.29075 | 37024 ft | 454 kts | 190° |
| 2026-05-05 18:28 | 41.47316 | -4.30069 | 36993 ft | 454 kts | 190° |
| 2026-05-05 18:28 | 41.42082 | -4.30618 | 37010 ft | 453 kts | 191° |
| 2026-05-05 18:29 | 41.35795 | -4.31280 | 37019 ft | 453 kts | 191° |
| 2026-05-05 18:29 | 41.29511 | -4.31939 | 37019 ft | 453 kts | 191° |
| 2026-05-05 18:30 | 41.23220 | -4.32584 | 36998 ft | 453 kts | 191° |
| 2026-05-05 18:30 | 41.16943 | -4.33230 | 37016 ft | 452 kts | 191° |
| 2026-05-05 18:31 | 41.10671 | -4.33884 | 37006 ft | 452 kts | 191° |
| 2026-05-05 18:31 | 41.04427 | -4.34534 | 36980 ft | 452 kts | 191° |
| 2026-05-05 18:32 | 40.98121 | -4.35188 | 36997 ft | 451 kts | 191° |
| 2026-05-05 18:32 | 40.91907 | -4.35827 | 37005 ft | 451 kts | 191° |
| 2026-05-05 18:33 | 40.85646 | -4.36467 | 37002 ft | 451 kts | 191° |
| 2026-05-05 18:33 | 40.79403 | -4.37105 | 36988 ft | 450 kts | 191° |
| 2026-05-05 18:34 | 40.73158 | -4.37750 | 37000 ft | 449 kts | 191° |
| 2026-05-05 18:34 | 40.66921 | -4.38392 | 37004 ft | 449 kts | 191° |
| 2026-05-05 18:35 | 40.60718 | -4.39024 | 36995 ft | 449 kts | 191° |
| 2026-05-05 18:35 | 40.54527 | -4.39658 | 36990 ft | 448 kts | 191° |
| 2026-05-05 18:36 | 40.48262 | -4.40295 | 36993 ft | 448 kts | 191° |
| 2026-05-05 18:36 | 40.42080 | -4.40919 | 36987 ft | 448 kts | 191° |
| 2026-05-05 18:37 | 40.35864 | -4.41549 | 36957 ft | 447 kts | 191° |
| 2026-05-05 18:37 | 40.29668 | -4.42174 | 36972 ft | 446 kts | 191° |
| 2026-05-05 18:38 | 40.23480 | -4.42797 | 36982 ft | 445 kts | 191° |
| 2026-05-05 18:38 | 40.17301 | -4.43424 | 36970 ft | 445 kts | 191° |
| 2026-05-05 18:39 | 40.11132 | -4.44046 | 36959 ft | 444 kts | 191° |
| 2026-05-05 18:39 | 40.04979 | -4.44660 | 36964 ft | 443 kts | 191° |
| 2026-05-05 18:40 | 39.98824 | -4.45277 | 36963 ft | 443 kts | 191° |
| 2026-05-05 18:40 | 39.92674 | -4.45897 | 36936 ft | 442 kts | 192° |
| 2026-05-05 18:41 | 39.86584 | -4.46508 | 36959 ft | 442 kts | 192° |
| 2026-05-05 18:41 | 39.80461 | -4.47118 | 36970 ft | 441 kts | 192° |
| 2026-05-05 18:42 | 39.74334 | -4.47728 | 36958 ft | 442 kts | 192° |
| 2026-05-05 18:42 | 39.68187 | -4.48342 | 36913 ft | 444 kts | 192° |
| 2026-05-05 18:43 | 39.62004 | -4.48955 | 36926 ft | 446 kts | 192° |
| 2026-05-05 18:43 | 39.55808 | -4.49570 | 36937 ft | 448 kts | 191° |
| 2026-05-05 18:44 | 39.49577 | -4.50175 | 36958 ft | 449 kts | 191° |
| 2026-05-05 18:44 | 39.43354 | -4.50783 | 36954 ft | 449 kts | 192° |
| 2026-05-05 18:45 | 39.37130 | -4.51404 | 36963 ft | 449 kts | 192° |
| 2026-05-05 18:45 | 39.30905 | -4.52022 | 36971 ft | 449 kts | 191° |
| 2026-05-05 18:46 | 39.24710 | -4.52627 | 36950 ft | 449 kts | 192° |
| 2026-05-05 18:46 | 39.18488 | -4.53234 | 36973 ft | 449 kts | 192° |
| 2026-05-05 18:47 | 39.12264 | -4.53845 | 36978 ft | 448 kts | 192° |
| 2026-05-05 18:47 | 39.06039 | -4.54456 | 36979 ft | 448 kts | 192° |
| 2026-05-05 18:48 | 38.99819 | -4.55064 | 36958 ft | 448 kts | 192° |
| 2026-05-05 18:48 | 38.93595 | -4.55676 | 36978 ft | 447 kts | 193° |
| 2026-05-05 18:49 | 38.87473 | -4.56725 | 36985 ft | 442 kts | 197° |
| 2026-05-05 18:49 | 38.81423 | -4.58131 | 36985 ft | 441 kts | 198° |
| 2026-05-05 18:50 | 38.75374 | -4.59509 | 36976 ft | 442 kts | 197° |
| 2026-05-05 18:50 | 38.69302 | -4.60782 | 36985 ft | 442 kts | 196° |
| 2026-05-05 18:51 | 38.63218 | -4.62009 | 36993 ft | 442 kts | 196° |
| 2026-05-05 18:51 | 38.57188 | -4.63245 | 36993 ft | 442 kts | 196° |
| 2026-05-05 18:52 | 38.51123 | -4.64502 | 36974 ft | 441 kts | 196° |
| 2026-05-05 18:52 | 38.45057 | -4.65760 | 36985 ft | 441 kts | 196° |
| 2026-05-05 18:53 | 38.39010 | -4.67007 | 36989 ft | 439 kts | 196° |
| 2026-05-05 18:53 | 38.32990 | -4.68238 | 36980 ft | 438 kts | 196° |
| 2026-05-05 18:54 | 38.26953 | -4.69479 | 36974 ft | 439 kts | 196° |
| 2026-05-05 18:54 | 38.20958 | -4.70715 | 36979 ft | 439 kts | 196° |
| 2026-05-05 18:55 | 38.14918 | -4.71954 | 36977 ft | 440 kts | 196° |
| 2026-05-05 18:55 | 38.08870 | -4.73188 | 36953 ft | 440 kts | 195° |
| 2026-05-05 18:56 | 38.02830 | -4.74415 | 36967 ft | 440 kts | 195° |
| 2026-05-05 18:56 | 37.99804 | -4.75032 | 36779 ft | 441 kts | 196° |
| 2026-05-05 18:56 | 37.96754 | -4.75656 | 35926 ft | 442 kts | 195° |
| 2026-05-05 18:57 | 37.93725 | -4.76273 | 34964 ft | 440 kts | 195° |
| 2026-05-05 18:57 | 37.90720 | -4.76882 | 34269 ft | 434 kts | 195° |
| 2026-05-05 18:57 | 37.87742 | -4.77483 | 33498 ft | 434 kts | 195° |
| 2026-05-05 18:57 | 37.84767 | -4.78087 | 32703 ft | 433 kts | 195° |
| 2026-05-05 18:58 | 37.81814 | -4.78769 | 31971 ft | 428 kts | 201° |
| 2026-05-05 18:58 | 37.79024 | -4.79974 | 31207 ft | 421 kts | 210° |
| 2026-05-05 18:58 | 37.76462 | -4.81729 | 30342 ft | 417 kts | 219° |
| 2026-05-05 18:58 | 37.74180 | -4.83978 | 29380 ft | 415 kts | 227° |
| 2026-05-05 18:59 | 37.72254 | -4.86647 | 28734 ft | 406 kts | 236° |
| 2026-05-05 18:59 | 37.70621 | -4.89504 | 28228 ft | 398 kts | 237° |
| 2026-05-05 18:59 | 37.69016 | -4.92309 | 27946 ft | 387 kts | 237° |
| 2026-05-05 18:59 | 37.67463 | -4.95000 | 27810 ft | 372 kts | 237° |
| 2026-05-05 19:00 | 37.65963 | -4.97594 | 27669 ft | 359 kts | 237° |
| 2026-05-05 19:00 | 37.64522 | -5.00093 | 27496 ft | 347 kts | 237° |
| 2026-05-05 19:00 | 37.62998 | -5.02378 | 27184 ft | 344 kts | 227° |
| 2026-05-05 19:00 | 37.61106 | -5.04221 | 26926 ft | 347 kts | 216° |
| 2026-05-05 19:01 | 37.58995 | -5.05721 | 26537 ft | 348 kts | 214° |
| 2026-05-05 19:01 | 37.56889 | -5.07199 | 26077 ft | 346 kts | 214° |
| 2026-05-05 19:01 | 37.54785 | -5.08675 | 25620 ft | 345 kts | 214° |
| 2026-05-05 19:01 | 37.52658 | -5.10067 | 25171 ft | 346 kts | 207° |
| 2026-05-05 19:02 | 37.50338 | -5.10940 | 24705 ft | 351 kts | 195° |
| 2026-05-05 19:02 | 37.49647 | -5.11070 | 24567 ft | 353 kts | 191° |
| 2026-05-05 19:02 | 37.47302 | -5.11144 | 24125 ft | 356 kts | 184° |
| 2026-05-05 19:02 | 37.44825 | -5.11092 | 23653 ft | 356 kts | 184° |
| 2026-05-05 19:03 | 37.42353 | -5.11047 | 23128 ft | 355 kts | 184° |
| 2026-05-05 19:03 | 37.39895 | -5.10941 | 22663 ft | 355 kts | 178° |
| 2026-05-05 19:03 | 37.37470 | -5.10293 | 22184 ft | 359 kts | 166° |
| 2026-05-05 19:03 | 37.35190 | -5.08998 | 21702 ft | 362 kts | 154° |
| 2026-05-05 19:04 | 37.33024 | -5.07381 | 21230 ft | 361 kts | 153° |
| 2026-05-05 19:04 | 37.30870 | -5.05773 | 20751 ft | 359 kts | 153° |
| 2026-05-05 19:04 | 37.28725 | -5.04186 | 20275 ft | 357 kts | 156° |
| 2026-05-05 19:04 | 37.26461 | -5.03002 | 19849 ft | 347 kts | 168° |
| 2026-05-05 19:05 | 37.24115 | -5.02433 | 19366 ft | 341 kts | 180° |
| 2026-05-05 19:05 | 37.21773 | -5.02373 | 18939 ft | 336 kts | 184° |
| 2026-05-05 19:05 | 37.19441 | -5.02349 | 18546 ft | 333 kts | 184° |
| 2026-05-05 19:05 | 37.17130 | -5.02321 | 18092 ft | 331 kts | 184° |
| 2026-05-05 19:06 | 37.14827 | -5.02291 | 17578 ft | 330 kts | 184° |
| 2026-05-05 19:06 | 37.12544 | -5.02256 | 17133 ft | 327 kts | 183° |
| 2026-05-05 19:06 | 37.10278 | -5.02220 | 16694 ft | 324 kts | 183° |
| 2026-05-05 19:06 | 37.08039 | -5.02186 | 16271 ft | 321 kts | 183° |
| 2026-05-05 19:07 | 37.05808 | -5.02153 | 15858 ft | 319 kts | 183° |
| 2026-05-05 19:07 | 37.04355 | -5.02133 | 15784 ft | 313 kts | 183° |
| 2026-05-05 19:07 | 37.01422 | -5.02096 | 15590 ft | 316 kts | 183° |
| 2026-05-05 19:07 | 36.99269 | -5.02067 | 15428 ft | 315 kts | 183° |
| 2026-05-05 19:08 | 36.97049 | -5.02035 | 15260 ft | 315 kts | 183° |
| 2026-05-05 19:08 | 36.94864 | -5.01801 | 15083 ft | 318 kts | 171° |
| 2026-05-05 19:08 | 36.92774 | -5.00891 | 14922 ft | 322 kts | 156° |
| 2026-05-05 19:08 | 36.90917 | -4.99303 | 14705 ft | 326 kts | 140° |
| 2026-05-05 19:09 | 36.89341 | -4.97313 | 14498 ft | 327 kts | 137° |
| 2026-05-05 19:09 | 36.87752 | -4.95287 | 14282 ft | 326 kts | 137° |
| 2026-05-05 19:09 | 36.86155 | -4.93268 | 14066 ft | 325 kts | 137° |
| 2026-05-05 19:09 | 36.85485 | -4.92425 | 13981 ft | 325 kts | 137° |
| 2026-05-05 19:10 | 36.83906 | -4.90446 | 13775 ft | 325 kts | 137° |
| 2026-05-05 19:10 | 36.82313 | -4.88450 | 13551 ft | 324 kts | 137° |
| 2026-05-05 19:10 | 36.80733 | -4.86463 | 13331 ft | 322 kts | 137° |
| 2026-05-05 19:10 | 36.79135 | -4.84500 | 13139 ft | 321 kts | 139° |
| 2026-05-05 19:11 | 36.77496 | -4.82602 | 12973 ft | 321 kts | 140° |
| 2026-05-05 19:11 | 36.75841 | -4.80738 | 12770 ft | 319 kts | 141° |
| 2026-05-05 19:11 | 36.74191 | -4.78896 | 12559 ft | 318 kts | 141° |
| 2026-05-05 19:11 | 36.72547 | -4.77059 | 12346 ft | 317 kts | 141° |
| 2026-05-05 19:12 | 36.70912 | -4.75227 | 12156 ft | 316 kts | 141° |
| 2026-05-05 19:12 | 36.69280 | -4.73390 | 11951 ft | 315 kts | 140° |
| 2026-05-05 19:12 | 36.67662 | -4.71563 | 11744 ft | 314 kts | 140° |
| 2026-05-05 19:12 | 36.66068 | -4.69757 | 11567 ft | 305 kts | 140° |
| 2026-05-05 19:13 | 36.64529 | -4.68008 | 11391 ft | 295 kts | 141° |
| 2026-05-05 19:13 | 36.63030 | -4.66307 | 11228 ft | 287 kts | 141° |
| 2026-05-05 19:13 | 36.61549 | -4.64630 | 11121 ft | 289 kts | 141° |
| 2026-05-05 19:13 | 36.60061 | -4.62950 | 10964 ft | 288 kts | 141° |
| 2026-05-05 19:14 | 36.58577 | -4.61277 | 10791 ft | 287 kts | 141° |
| 2026-05-05 19:14 | 36.57095 | -4.59611 | 10610 ft | 287 kts | 141° |
| 2026-05-05 19:14 | 36.55618 | -4.57949 | 10441 ft | 286 kts | 141° |
| 2026-05-05 19:14 | 36.54197 | -4.56235 | 10254 ft | 283 kts | 132° |
| 2026-05-05 19:15 | 36.53166 | -4.54176 | 10042 ft | 280 kts | 114° |
| 2026-05-05 19:15 | 36.52531 | -4.51906 | 9907 ft | 277 kts | 109° |
| 2026-05-05 19:15 | 36.51921 | -4.49664 | 9747 ft | 277 kts | 111° |
| 2026-05-05 19:15 | 36.51285 | -4.47371 | 9558 ft | 276 kts | 110° |
| 2026-05-05 19:16 | 36.50869 | -4.45879 | 9451 ft | 277 kts | 110° |
| 2026-05-05 19:16 | 36.50030 | -4.42880 | 9215 ft | 275 kts | 110° |
| 2026-05-05 19:16 | 36.49358 | -4.40660 | 9042 ft | 273 kts | 117° |
| 2026-05-05 19:16 | 36.48705 | -4.39303 | 8936 ft | 270 kts | 128° |
| 2026-05-05 19:17 | 36.47483 | -4.37543 | 8762 ft | 268 kts | 135° |
| 2026-05-05 19:17 | 36.46231 | -4.35810 | 8607 ft | 271 kts | 135° |
| 2026-05-05 19:17 | 36.44997 | -4.34092 | 8446 ft | 261 kts | 134° |
| 2026-05-05 19:17 | 36.43812 | -4.32444 | 8301 ft | 259 kts | 135° |
| 2026-05-05 19:18 | 36.42604 | -4.30766 | 8143 ft | 256 kts | 135° |
| 2026-05-05 19:18 | 36.41412 | -4.29115 | 7973 ft | 258 kts | 135° |
| 2026-05-05 19:18 | 36.40243 | -4.27494 | 7823 ft | 253 kts | 133° |
| 2026-05-05 19:18 | 36.39079 | -4.25878 | 7658 ft | 245 kts | 134° |
| 2026-05-05 19:19 | 36.37985 | -4.24357 | 7516 ft | 228 kts | 133° |
| 2026-05-05 19:19 | 36.36958 | -4.22931 | 7390 ft | 217 kts | 133° |
| 2026-05-05 19:19 | 36.35960 | -4.21552 | 7260 ft | 214 kts | 133° |
| 2026-05-05 19:19 | 36.34951 | -4.20159 | 7135 ft | 222 kts | 133° |
| 2026-05-05 19:20 | 36.33902 | -4.18710 | 6996 ft | 227 kts | 133° |
| 2026-05-05 19:20 | 36.32854 | -4.17260 | 6855 ft | 225 kts | 133° |
| 2026-05-05 19:20 | 36.31803 | -4.15805 | 6713 ft | 228 kts | 133° |
| 2026-05-05 19:20 | 36.30738 | -4.14332 | 6576 ft | 229 kts | 133° |
| 2026-05-05 19:21 | 36.29678 | -4.12870 | 6409 ft | 227 kts | 132° |
| 2026-05-05 19:21 | 36.28697 | -4.11350 | 6252 ft | 224 kts | 117° |
| 2026-05-05 19:21 | 36.28314 | -4.09515 | 6100 ft | 221 kts | 88° |
| 2026-05-05 19:21 | 36.28655 | -4.07706 | 5944 ft | 214 kts | 57° |
| 2026-05-05 19:22 | 36.29583 | -4.06321 | 5793 ft | 207 kts | 35° |
| 2026-05-05 19:22 | 36.30671 | -4.05144 | 5637 ft | 208 kts | 37° |
| 2026-05-05 19:22 | 36.31780 | -4.04056 | 5490 ft | 204 kts | 24° |
| 2026-05-05 19:22 | 36.33116 | -4.03668 | 5348 ft | 196 kts | 355° |
| 2026-05-05 19:23 | 36.34448 | -4.04168 | 5228 ft | 206 kts | 327° |
| 2026-05-05 19:23 | 36.35483 | -4.05394 | 5086 ft | 210 kts | 312° |
| 2026-05-05 19:23 | 36.36454 | -4.06747 | 4942 ft | 213 kts | 312° |
| 2026-05-05 19:23 | 36.37445 | -4.08122 | 4809 ft | 214 kts | 313° |
| 2026-05-05 19:24 | 36.38427 | -4.09482 | 4650 ft | 209 kts | 313° |
| 2026-05-05 19:24 | 36.39404 | -4.10838 | 4536 ft | 211 kts | 313° |
| 2026-05-05 19:24 | 36.40387 | -4.12201 | 4404 ft | 213 kts | 312° |
| 2026-05-05 19:24 | 36.41381 | -4.13578 | 4277 ft | 215 kts | 312° |
| 2026-05-05 19:25 | 36.42373 | -4.14959 | 4152 ft | 212 kts | 313° |
| 2026-05-05 19:25 | 36.43344 | -4.16307 | 4028 ft | 207 kts | 313° |
| 2026-05-05 19:25 | 36.44294 | -4.17623 | 3896 ft | 204 kts | 313° |
| 2026-05-05 19:25 | 36.45244 | -4.18939 | 3772 ft | 204 kts | 313° |
| 2026-05-05 19:26 | 36.46185 | -4.20243 | 3646 ft | 201 kts | 313° |
| 2026-05-05 19:26 | 36.47113 | -4.21529 | 3524 ft | 199 kts | 313° |
| 2026-05-05 19:26 | 36.48037 | -4.22811 | 3403 ft | 200 kts | 313° |
| 2026-05-05 19:26 | 36.48965 | -4.24099 | 3280 ft | 200 kts | 313° |
| 2026-05-05 19:27 | 36.49899 | -4.25395 | 3166 ft | 203 kts | 313° |
| 2026-05-05 19:27 | 36.50832 | -4.26691 | 3039 ft | 200 kts | 313° |
| 2026-05-05 19:27 | 36.51763 | -4.27985 | 2914 ft | 202 kts | 313° |
| 2026-05-05 19:27 | 36.52694 | -4.29278 | 2783 ft | 196 kts | 313° |
| 2026-05-05 19:28 | 36.53556 | -4.30478 | 2673 ft | 178 kts | 313° |
| 2026-05-05 19:28 | 36.54350 | -4.31581 | 2566 ft | 166 kts | 313° |
| 2026-05-05 19:28 | 36.55098 | -4.32621 | 2479 ft | 159 kts | 313° |
| 2026-05-05 19:28 | 36.55831 | -4.33642 | 2387 ft | 159 kts | 313° |
| 2026-05-05 19:29 | 36.56570 | -4.34670 | 2301 ft | 157 kts | 313° |
| 2026-05-05 19:29 | 36.57297 | -4.35682 | 2195 ft | 155 kts | 313° |
| 2026-05-05 19:29 | 36.58009 | -4.36674 | 2115 ft | 151 kts | 313° |
| 2026-05-05 19:29 | 36.58675 | -4.37602 | 2059 ft | 143 kts | 313° |
| 2026-05-05 19:30 | 36.59347 | -4.38538 | 2009 ft | 141 kts | 313° |
| 2026-05-05 19:30 | 36.59998 | -4.39447 | 1888 ft | 142 kts | 312° |
| 2026-05-05 19:30 | 36.60652 | -4.40357 | 1741 ft | 142 kts | 312° |
| 2026-05-05 19:30 | 36.61305 | -4.41269 | 1579 ft | 142 kts | 311° |
| 2026-05-05 19:31 | 36.61952 | -4.42171 | 1400 ft | 138 kts | 310° |
| 2026-05-05 19:31 | 36.62590 | -4.43062 | 1220 ft | 137 kts | 310° |
| 2026-05-05 19:31 | 36.63225 | -4.43953 | 1036 ft | 139 kts | 309° |
| 2026-05-05 19:31 | 36.63854 | -4.44850 | 842 ft | 139 kts | 309° |
| 2026-05-05 19:32 | 36.64502 | -4.45758 | 614 ft | 142 kts | 311° |
| 2026-05-05 19:32 | 36.65147 | -4.46660 | 489 ft | 138 kts | 313° |
| 2026-05-05 19:32 | 36.65789 | -4.47548 | 295 ft | 139 kts | 313° |
| 2026-05-05 19:32 | 36.66416 | -4.48427 | 125 ft | 134 kts | 314° |
| 2026-05-05 19:33 | 36.67030 | -4.49273 | 47 ft | 121 kts | 313° |
| 2026-05-05 19:33 | 36.67499 | -4.49924 | 50 ft | 77 kts | 311° |
| 2026-05-05 19:33 | 36.67765 | -4.50221 | 50 ft | 27 kts | 346° |
| 2026-05-05 19:33 | 36.67821 | -4.50230 | 50 ft | 2 kts | 352° |
| 2026-05-05 19:34 | 36.67845 | -4.50233 | 50 ft | 5 kts | 355° |
| 2026-05-05 19:34 | 36.67881 | -4.50217 | 49 ft | 7 kts | 43° |
| 2026-05-05 19:34 | 36.67896 | -4.50170 | 49 ft | 7 kts | 91° |
| 2026-05-05 19:35 | 36.67903 | -4.50051 | 47 ft | 9 kts | 133° |
| 2026-05-05 19:35 | 36.67894 | -4.50039 | 49 ft | 0 kts | 133° |
| 2026-05-05 19:37 | 36.67909 | -4.50055 | 45 ft | 14 kts | 168° |
| 2026-05-05 19:38 | 36.67934 | -4.50108 | 48 ft | 9 kts | 342° |
| 2026-05-05 19:38 | 36.67984 | -4.50166 | 49 ft | 13 kts | 310° |
| 2026-05-05 19:38 | 36.68010 | -4.50202 | 49 ft | 10 kts | 313° |